sensor_id;sensor_type;location;lat;lon;timestamp;temperature;humidity
37910;DHT22;23741;49.446;8.754;2022-12-18T00:00:43;2.30;60.10
37910;DHT22;23741;49.446;8.754;2022-12-18T00:02:45;2.30;60.20
37910;DHT22;23741;49.446;8.754;2022-12-18T00:04:46;2.30;60.30
37910;DHT22;23741;49.446;8.754;2022-12-18T00:06:48;2.30;60.20
37910;DHT22;23741;49.446;8.754;2022-12-18T00:08:50;2.30;60.40
37910;DHT22;23741;49.446;8.754;2022-12-18T00:10:52;2.30;60.50
37910;DHT22;23741;49.446;8.754;2022-12-18T00:13:00;2.30;60.60
37910;DHT22;23741;49.446;8.754;2022-12-18T00:15:07;2.30;60.80
37910;DHT22;23741;49.446;8.754;2022-12-18T00:17:09;2.30;60.50
37910;DHT22;23741;49.446;8.754;2022-12-18T00:19:12;2.30;60.50
37910;DHT22;23741;49.446;8.754;2022-12-18T00:21:14;2.30;60.80
37910;DHT22;23741;49.446;8.754;2022-12-18T00:23:16;2.30;60.80
37910;DHT22;23741;49.446;8.754;2022-12-18T00:25:17;2.30;60.70
37910;DHT22;23741;49.446;8.754;2022-12-18T00:27:19;2.30;60.50
37910;DHT22;23741;49.446;8.754;2022-12-18T00:29:21;2.30;60.70
37910;DHT22;23741;49.446;8.754;2022-12-18T00:31:23;2.30;60.70
37910;DHT22;23741;49.446;8.754;2022-12-18T00:33:27;2.30;60.70
37910;DHT22;23741;49.446;8.754;2022-12-18T00:35:29;2.30;60.80
37910;DHT22;23741;49.446;8.754;2022-12-18T00:37:30;2.30;60.80
37910;DHT22;23741;49.446;8.754;2022-12-18T00:39:32;2.30;60.70
37910;DHT22;23741;49.446;8.754;2022-12-18T00:41:34;2.30;60.50
37910;DHT22;23741;49.446;8.754;2022-12-18T00:43:54;2.30;60.40
37910;DHT22;23741;49.446;8.754;2022-12-18T00:45:55;2.30;60.40
37910;DHT22;23741;49.446;8.754;2022-12-18T00:47:57;2.30;60.40
37910;DHT22;23741;49.446;8.754;2022-12-18T00:49:59;2.30;60.50
37910;DHT22;23741;49.446;8.754;2022-12-18T00:52:01;2.30;60.70
37910;DHT22;23741;49.446;8.754;2022-12-18T00:54:02;2.30;60.80
37910;DHT22;23741;49.446;8.754;2022-12-18T00:56:05;2.30;60.90
37910;DHT22;23741;49.446;8.754;2022-12-18T00:58:07;2.30;60.80
37910;DHT22;23741;49.446;8.754;2022-12-18T01:00:10;2.30;60.80
37910;DHT22;23741;49.446;8.754;2022-12-18T01:02:12;2.30;61.00
37910;DHT22;23741;49.446;8.754;2022-12-18T01:04:14;2.30;60.90
37910;DHT22;23741;49.446;8.754;2022-12-18T01:06:19;2.30;61.10
37910;DHT22;23741;49.446;8.754;2022-12-18T01:08:21;2.30;61.20
37910;DHT22;23741;49.446;8.754;2022-12-18T01:10:23;2.30;61.20
37910;DHT22;23741;49.446;8.754;2022-12-18T01:12:25;2.30;61.40
37910;DHT22;23741;49.446;8.754;2022-12-18T01:14:26;2.30;61.10
37910;DHT22;23741;49.446;8.754;2022-12-18T01:16:28;2.30;61.30
37910;DHT22;23741;49.446;8.754;2022-12-18T01:18:30;2.30;61.10
37910;DHT22;23741;49.446;8.754;2022-12-18T01:20:32;2.30;61.10
37910;DHT22;23741;49.446;8.754;2022-12-18T01:22:34;2.30;61.00
37910;DHT22;23741;49.446;8.754;2022-12-18T01:24:36;2.30;61.00
37910;DHT22;23741;49.446;8.754;2022-12-18T01:26:38;2.30;60.90
37910;DHT22;23741;49.446;8.754;2022-12-18T01:28:39;2.30;61.00
37910;DHT22;23741;49.446;8.754;2022-12-18T01:30:41;2.30;61.10
37910;DHT22;23741;49.446;8.754;2022-12-18T01:32:43;2.30;61.00
37910;DHT22;23741;49.446;8.754;2022-12-18T01:34:45;2.30;61.00
37910;DHT22;23741;49.446;8.754;2022-12-18T01:36:46;2.30;61.10
37910;DHT22;23741;49.446;8.754;2022-12-18T01:38:49;2.30;62.00
37910;DHT22;23741;49.446;8.754;2022-12-18T01:40:56;2.30;61.00
37910;DHT22;23741;49.446;8.754;2022-12-18T01:42:58;2.30;60.90
37910;DHT22;23741;49.446;8.754;2022-12-18T01:45:08;2.30;60.90
37910;DHT22;23741;49.446;8.754;2022-12-18T01:49:28;2.30;61.40
37910;DHT22;23741;49.446;8.754;2022-12-18T01:51:30;2.30;61.10
37910;DHT22;23741;49.446;8.754;2022-12-18T01:53:32;2.30;61.40
37910;DHT22;23741;49.446;8.754;2022-12-18T01:55:38;2.30;61.50
37910;DHT22;23741;49.446;8.754;2022-12-18T01:57:41;2.30;61.80
37910;DHT22;23741;49.446;8.754;2022-12-18T01:59:43;2.40;62.10
37910;DHT22;23741;49.446;8.754;2022-12-18T02:01:46;2.40;61.90
37910;DHT22;23741;49.446;8.754;2022-12-18T02:03:49;2.30;61.50
37910;DHT22;23741;49.446;8.754;2022-12-18T02:12:23;2.40;61.70
37910;DHT22;23741;49.446;8.754;2022-12-18T02:14:32;2.40;62.00
37910;DHT22;23741;49.446;8.754;2022-12-18T02:16:42;2.40;61.70
37910;DHT22;23741;49.446;8.754;2022-12-18T02:18:47;2.40;61.60
37910;DHT22;23741;49.446;8.754;2022-12-18T02:21:00;2.40;61.60
37910;DHT22;23741;49.446;8.754;2022-12-18T02:27:28;2.50;61.70
37910;DHT22;23741;49.446;8.754;2022-12-18T02:29:45;2.50;61.60
37910;DHT22;23741;49.446;8.754;2022-12-18T02:31:54;2.50;61.40
37910;DHT22;23741;49.446;8.754;2022-12-18T02:33:58;2.50;61.40
37910;DHT22;23741;49.446;8.754;2022-12-18T02:36:01;2.50;61.50
37910;DHT22;23741;49.446;8.754;2022-12-18T02:38:06;2.50;61.40
37910;DHT22;23741;49.446;8.754;2022-12-18T02:40:10;2.50;61.40
37910;DHT22;23741;49.446;8.754;2022-12-18T02:42:12;2.40;61.40
37910;DHT22;23741;49.446;8.754;2022-12-18T02:44:14;2.40;61.50
37910;DHT22;23741;49.446;8.754;2022-12-18T02:48:32;2.50;61.70
37910;DHT22;23741;49.446;8.754;2022-12-18T02:50:35;2.50;61.50
37910;DHT22;23741;49.446;8.754;2022-12-18T02:54:55;2.50;61.30
37910;DHT22;23741;49.446;8.754;2022-12-18T02:57:01;2.50;62.10
37910;DHT22;23741;49.446;8.754;2022-12-18T02:59:08;2.50;61.20
37910;DHT22;23741;49.446;8.754;2022-12-18T03:01:19;2.50;61.40
37910;DHT22;23741;49.446;8.754;2022-12-18T03:05:28;2.50;61.50
37910;DHT22;23741;49.446;8.754;2022-12-18T03:07:36;2.50;61.50
37910;DHT22;23741;49.446;8.754;2022-12-18T03:09:44;2.50;61.20
37910;DHT22;23741;49.446;8.754;2022-12-18T03:11:50;2.50;61.10
37910;DHT22;23741;49.446;8.754;2022-12-18T03:14:13;2.50;61.00
37910;DHT22;23741;49.446;8.754;2022-12-18T03:16:18;2.40;61.40
37910;DHT22;23741;49.446;8.754;2022-12-18T03:18:27;2.50;61.50
37910;DHT22;23741;49.446;8.754;2022-12-18T03:20:31;2.50;61.60
37910;DHT22;23741;49.446;8.754;2022-12-18T03:22:34;2.50;61.50
37910;DHT22;23741;49.446;8.754;2022-12-18T03:24:37;2.50;61.40
37910;DHT22;23741;49.446;8.754;2022-12-18T03:26:42;2.50;61.40
37910;DHT22;23741;49.446;8.754;2022-12-18T03:28:52;2.50;61.40
37910;DHT22;23741;49.446;8.754;2022-12-18T03:30:55;2.50;61.40
37910;DHT22;23741;49.446;8.754;2022-12-18T03:33:04;2.50;61.40
37910;DHT22;23741;49.446;8.754;2022-12-18T03:35:07;2.50;61.40
37910;DHT22;23741;49.446;8.754;2022-12-18T03:37:11;2.50;61.30
37910;DHT22;23741;49.446;8.754;2022-12-18T03:39:14;2.50;61.20
37910;DHT22;23741;49.446;8.754;2022-12-18T03:41:25;2.50;61.10
37910;DHT22;23741;49.446;8.754;2022-12-18T03:46:36;2.40;61.10
37910;DHT22;23741;49.446;8.754;2022-12-18T03:51:01;2.40;61.50
37910;DHT22;23741;49.446;8.754;2022-12-18T03:55:05;2.40;61.50
37910;DHT22;23741;49.446;8.754;2022-12-18T03:57:12;2.40;61.30
37910;DHT22;23741;49.446;8.754;2022-12-18T03:59:15;2.40;61.40
37910;DHT22;23741;49.446;8.754;2022-12-18T04:01:18;2.40;61.20
37910;DHT22;23741;49.446;8.754;2022-12-18T04:03:22;2.40;61.20
37910;DHT22;23741;49.446;8.754;2022-12-18T04:05:40;2.40;61.40
37910;DHT22;23741;49.446;8.754;2022-12-18T04:07:44;2.40;61.70
37910;DHT22;23741;49.446;8.754;2022-12-18T04:09:48;2.40;62.00
37910;DHT22;23741;49.446;8.754;2022-12-18T04:11:52;2.40;62.20
37910;DHT22;23741;49.446;8.754;2022-12-18T04:13:57;2.40;62.30
37910;DHT22;23741;49.446;8.754;2022-12-18T04:15:59;2.40;62.10
37910;DHT22;23741;49.446;8.754;2022-12-18T04:18:01;2.50;62.00
37910;DHT22;23741;49.446;8.754;2022-12-18T04:20:10;2.50;61.90
37910;DHT22;23741;49.446;8.754;2022-12-18T04:22:16;2.50;61.70
37910;DHT22;23741;49.446;8.754;2022-12-18T04:24:21;2.50;61.50
37910;DHT22;23741;49.446;8.754;2022-12-18T04:26:36;2.50;61.40
37910;DHT22;23741;49.446;8.754;2022-12-18T04:28:46;2.50;61.20
37910;DHT22;23741;49.446;8.754;2022-12-18T04:30:49;2.50;61.20
37910;DHT22;23741;49.446;8.754;2022-12-18T04:32:51;2.50;61.10
37910;DHT22;23741;49.446;8.754;2022-12-18T04:34:54;2.40;61.10
37910;DHT22;23741;49.446;8.754;2022-12-18T04:36:56;2.50;61.10
37910;DHT22;23741;49.446;8.754;2022-12-18T04:38:59;2.40;61.00
37910;DHT22;23741;49.446;8.754;2022-12-18T04:41:00;2.40;60.90
37910;DHT22;23741;49.446;8.754;2022-12-18T04:43:03;2.40;61.20
37910;DHT22;23741;49.446;8.754;2022-12-18T04:45:05;2.40;61.20
37910;DHT22;23741;49.446;8.754;2022-12-18T04:47:07;2.40;61.40
37910;DHT22;23741;49.446;8.754;2022-12-18T04:49:09;2.40;61.40
37910;DHT22;23741;49.446;8.754;2022-12-18T04:51:12;2.40;61.50
37910;DHT22;23741;49.446;8.754;2022-12-18T04:53:13;2.40;61.50
37910;DHT22;23741;49.446;8.754;2022-12-18T04:55:15;2.40;61.40
37910;DHT22;23741;49.446;8.754;2022-12-18T04:57:17;2.40;61.50
37910;DHT22;23741;49.446;8.754;2022-12-18T04:59:22;2.40;62.40
37910;DHT22;23741;49.446;8.754;2022-12-18T05:01:24;2.40;61.60
37910;DHT22;23741;49.446;8.754;2022-12-18T05:03:33;2.50;61.90
37910;DHT22;23741;49.446;8.754;2022-12-18T05:05:35;2.50;61.70
37910;DHT22;23741;49.446;8.754;2022-12-18T05:07:36;2.50;61.50
37910;DHT22;23741;49.446;8.754;2022-12-18T05:09:38;2.50;61.40
37910;DHT22;23741;49.446;8.754;2022-12-18T05:11:40;2.50;61.40
37910;DHT22;23741;49.446;8.754;2022-12-18T05:13:42;2.50;61.20
37910;DHT22;23741;49.446;8.754;2022-12-18T05:15:50;2.50;61.10
37910;DHT22;23741;49.446;8.754;2022-12-18T05:17:52;2.50;61.10
37910;DHT22;23741;49.446;8.754;2022-12-18T05:19:54;2.50;61.10
37910;DHT22;23741;49.446;8.754;2022-12-18T05:21:55;2.50;61.20
37910;DHT22;23741;49.446;8.754;2022-12-18T05:23:57;2.50;61.30
37910;DHT22;23741;49.446;8.754;2022-12-18T05:26:00;2.50;61.20
37910;DHT22;23741;49.446;8.754;2022-12-18T05:28:02;2.50;61.10
37910;DHT22;23741;49.446;8.754;2022-12-18T05:30:03;2.40;60.90
37910;DHT22;23741;49.446;8.754;2022-12-18T05:32:05;2.40;60.80
37910;DHT22;23741;49.446;8.754;2022-12-18T05:34:07;2.40;60.80
37910;DHT22;23741;49.446;8.754;2022-12-18T05:36:09;2.40;60.70
37910;DHT22;23741;49.446;8.754;2022-12-18T05:38:11;2.30;60.70
37910;DHT22;23741;49.446;8.754;2022-12-18T05:40:12;2.30;61.60
37910;DHT22;23741;49.446;8.754;2022-12-18T05:42:14;2.30;60.80
37910;DHT22;23741;49.446;8.754;2022-12-18T05:44:15;2.30;60.90
37910;DHT22;23741;49.446;8.754;2022-12-18T05:46:17;2.20;60.80
37910;DHT22;23741;49.446;8.754;2022-12-18T05:48:19;2.20;61.00
37910;DHT22;23741;49.446;8.754;2022-12-18T05:50:21;2.20;61.20
37910;DHT22;23741;49.446;8.754;2022-12-18T05:52:23;2.20;61.10
37910;DHT22;23741;49.446;8.754;2022-12-18T05:54:26;2.20;61.10
37910;DHT22;23741;49.446;8.754;2022-12-18T05:56:28;2.20;61.10
37910;DHT22;23741;49.446;8.754;2022-12-18T05:58:30;2.20;61.00
37910;DHT22;23741;49.446;8.754;2022-12-18T06:00:32;2.20;61.00
37910;DHT22;23741;49.446;8.754;2022-12-18T06:02:34;2.20;60.80
37910;DHT22;23741;49.446;8.754;2022-12-18T06:04:35;2.20;61.00
37910;DHT22;23741;49.446;8.754;2022-12-18T06:06:37;2.20;61.00
37910;DHT22;23741;49.446;8.754;2022-12-18T06:08:39;2.20;61.30
37910;DHT22;23741;49.446;8.754;2022-12-18T06:10:50;2.20;61.20
37910;DHT22;23741;49.446;8.754;2022-12-18T06:12:52;2.20;61.10
37910;DHT22;23741;49.446;8.754;2022-12-18T06:14:54;2.20;61.10
37910;DHT22;23741;49.446;8.754;2022-12-18T06:16:56;2.20;61.00
37910;DHT22;23741;49.446;8.754;2022-12-18T06:19:01;2.20;60.90
37910;DHT22;23741;49.446;8.754;2022-12-18T06:21:04;2.20;60.90
37910;DHT22;23741;49.446;8.754;2022-12-18T06:23:05;2.20;60.80
37910;DHT22;23741;49.446;8.754;2022-12-18T06:25:07;2.20;61.50
37910;DHT22;23741;49.446;8.754;2022-12-18T06:27:09;2.20;60.70
37910;DHT22;23741;49.446;8.754;2022-12-18T06:29:11;2.20;60.60
37910;DHT22;23741;49.446;8.754;2022-12-18T06:31:13;2.20;60.60
37910;DHT22;23741;49.446;8.754;2022-12-18T06:33:15;2.10;60.90
37910;DHT22;23741;49.446;8.754;2022-12-18T06:35:17;2.10;61.10
37910;DHT22;23741;49.446;8.754;2022-12-18T06:37:21;2.10;61.10
37910;DHT22;23741;49.446;8.754;2022-12-18T06:39:22;2.10;61.10
37910;DHT22;23741;49.446;8.754;2022-12-18T06:41:24;2.10;61.00
37910;DHT22;23741;49.446;8.754;2022-12-18T06:43:26;2.10;61.00
37910;DHT22;23741;49.446;8.754;2022-12-18T06:45:28;2.10;61.10
37910;DHT22;23741;49.446;8.754;2022-12-18T06:47:30;2.10;61.10
37910;DHT22;23741;49.446;8.754;2022-12-18T06:49:31;2.10;61.10
37910;DHT22;23741;49.446;8.754;2022-12-18T06:51:33;2.10;61.00
37910;DHT22;23741;49.446;8.754;2022-12-18T06:53:35;2.20;60.90
37910;DHT22;23741;49.446;8.754;2022-12-18T06:55:37;2.20;60.90
37910;DHT22;23741;49.446;8.754;2022-12-18T06:57:39;2.10;60.60
37910;DHT22;23741;49.446;8.754;2022-12-18T06:59:40;2.10;60.60
37910;DHT22;23741;49.446;8.754;2022-12-18T07:01:42;2.10;60.50
37910;DHT22;23741;49.446;8.754;2022-12-18T07:03:44;2.10;60.40
37910;DHT22;23741;49.446;8.754;2022-12-18T07:05:46;2.10;60.50
37910;DHT22;23741;49.446;8.754;2022-12-18T07:07:48;2.10;60.50
37910;DHT22;23741;49.446;8.754;2022-12-18T07:09:49;2.00;60.40
37910;DHT22;23741;49.446;8.754;2022-12-18T07:11:51;2.10;60.40
37910;DHT22;23741;49.446;8.754;2022-12-18T07:13:53;2.10;60.50
37910;DHT22;23741;49.446;8.754;2022-12-18T07:15:55;2.10;60.50
37910;DHT22;23741;49.446;8.754;2022-12-18T07:18:04;2.10;60.50
37910;DHT22;23741;49.446;8.754;2022-12-18T07:20:05;2.10;60.40
37910;DHT22;23741;49.446;8.754;2022-12-18T07:22:07;2.10;60.30
37910;DHT22;23741;49.446;8.754;2022-12-18T07:24:09;2.00;60.30
37910;DHT22;23741;49.446;8.754;2022-12-18T07:26:11;2.00;60.10
37910;DHT22;23741;49.446;8.754;2022-12-18T07:28:13;2.00;60.00
37910;DHT22;23741;49.446;8.754;2022-12-18T07:30:18;2.00;60.00
37910;DHT22;23741;49.446;8.754;2022-12-18T07:32:19;2.00;60.00
37910;DHT22;23741;49.446;8.754;2022-12-18T07:34:21;2.00;59.90
37910;DHT22;23741;49.446;8.754;2022-12-18T07:36:23;1.90;59.80
37910;DHT22;23741;49.446;8.754;2022-12-18T07:38:24;1.90;59.90
37910;DHT22;23741;49.446;8.754;2022-12-18T07:40:26;1.90;60.00
37910;DHT22;23741;49.446;8.754;2022-12-18T07:42:28;1.90;60.00
37910;DHT22;23741;49.446;8.754;2022-12-18T07:44:32;1.80;59.90
37910;DHT22;23741;49.446;8.754;2022-12-18T07:46:34;1.80;59.90
37910;DHT22;23741;49.446;8.754;2022-12-18T07:48:35;1.80;60.10
37910;DHT22;23741;49.446;8.754;2022-12-18T07:50:37;1.80;60.00
37910;DHT22;23741;49.446;8.754;2022-12-18T07:52:39;1.80;60.00
37910;DHT22;23741;49.446;8.754;2022-12-18T07:54:40;1.80;60.10
37910;DHT22;23741;49.446;8.754;2022-12-18T07:56:42;1.70;60.00
37910;DHT22;23741;49.446;8.754;2022-12-18T07:58:44;1.70;60.10
37910;DHT22;23741;49.446;8.754;2022-12-18T08:00:46;1.70;60.20
37910;DHT22;23741;49.446;8.754;2022-12-18T08:02:48;1.70;60.10
37910;DHT22;23741;49.446;8.754;2022-12-18T08:04:50;1.70;60.10
37910;DHT22;23741;49.446;8.754;2022-12-18T08:06:52;1.70;60.10
37910;DHT22;23741;49.446;8.754;2022-12-18T08:08:54;1.70;60.20
37910;DHT22;23741;49.446;8.754;2022-12-18T08:10:56;1.70;61.00
37910;DHT22;23741;49.446;8.754;2022-12-18T08:12:58;1.70;60.30
37910;DHT22;23741;49.446;8.754;2022-12-18T08:15:05;1.70;60.60
37910;DHT22;23741;49.446;8.754;2022-12-18T08:17:07;1.70;60.70
37910;DHT22;23741;49.446;8.754;2022-12-18T08:19:09;1.70;60.60
37910;DHT22;23741;49.446;8.754;2022-12-18T08:21:12;1.70;60.60
37910;DHT22;23741;49.446;8.754;2022-12-18T08:23:14;1.70;60.50
37910;DHT22;23741;49.446;8.754;2022-12-18T08:25:16;1.80;60.60
37910;DHT22;23741;49.446;8.754;2022-12-18T08:27:17;1.70;60.70
37910;DHT22;23741;49.446;8.754;2022-12-18T08:29:33;1.70;60.80
37910;DHT22;23741;49.446;8.754;2022-12-18T08:31:35;1.80;61.10
37910;DHT22;23741;49.446;8.754;2022-12-18T08:33:37;1.80;61.00
37910;DHT22;23741;49.446;8.754;2022-12-18T08:35:40;1.80;60.90
37910;DHT22;23741;49.446;8.754;2022-12-18T08:37:46;1.80;60.80
37910;DHT22;23741;49.446;8.754;2022-12-18T08:39:48;1.80;60.50
37910;DHT22;23741;49.446;8.754;2022-12-18T08:41:49;1.80;60.50
37910;DHT22;23741;49.446;8.754;2022-12-18T08:44:11;1.90;60.30
37910;DHT22;23741;49.446;8.754;2022-12-18T08:46:35;1.90;60.60
37910;DHT22;23741;49.446;8.754;2022-12-18T08:48:38;1.90;60.90
37910;DHT22;23741;49.446;8.754;2022-12-18T08:50:39;1.90;61.40
37910;DHT22;23741;49.446;8.754;2022-12-18T08:52:41;1.90;61.70
37910;DHT22;23741;49.446;8.754;2022-12-18T08:54:42;2.00;61.50
37910;DHT22;23741;49.446;8.754;2022-12-18T08:56:44;2.00;61.30
37910;DHT22;23741;49.446;8.754;2022-12-18T08:58:46;2.00;61.10
37910;DHT22;23741;49.446;8.754;2022-12-18T09:00:48;2.00;61.00
37910;DHT22;23741;49.446;8.754;2022-12-18T09:02:49;2.00;60.80
37910;DHT22;23741;49.446;8.754;2022-12-18T09:04:51;2.10;60.90
37910;DHT22;23741;49.446;8.754;2022-12-18T09:06:58;2.10;60.90
37910;DHT22;23741;49.446;8.754;2022-12-18T09:08:59;2.10;60.80
37910;DHT22;23741;49.446;8.754;2022-12-18T09:11:02;2.10;60.50
37910;DHT22;23741;49.446;8.754;2022-12-18T09:13:04;2.10;60.30
37910;DHT22;23741;49.446;8.754;2022-12-18T09:15:05;2.10;60.50
37910;DHT22;23741;49.446;8.754;2022-12-18T09:17:07;2.20;60.70
37910;DHT22;23741;49.446;8.754;2022-12-18T09:19:09;2.20;60.50
37910;DHT22;23741;49.446;8.754;2022-12-18T09:21:30;2.10;60.40
37910;DHT22;23741;49.446;8.754;2022-12-18T09:23:37;2.20;60.20
37910;DHT22;23741;49.446;8.754;2022-12-18T09:25:38;2.20;59.50
37910;DHT22;23741;49.446;8.754;2022-12-18T09:27:40;2.10;59.60
37910;DHT22;23741;49.446;8.754;2022-12-18T09:29:42;2.20;59.90
37910;DHT22;23741;49.446;8.754;2022-12-18T09:31:43;2.10;60.40
37910;DHT22;23741;49.446;8.754;2022-12-18T09:33:45;2.20;60.90
37910;DHT22;23741;49.446;8.754;2022-12-18T09:35:47;2.20;60.80
37910;DHT22;23741;49.446;8.754;2022-12-18T09:37:49;2.20;60.60
37910;DHT22;23741;49.446;8.754;2022-12-18T09:39:50;2.20;60.40
37910;DHT22;23741;49.446;8.754;2022-12-18T09:41:53;2.30;60.50
37910;DHT22;23741;49.446;8.754;2022-12-18T09:44:10;2.30;60.70
37910;DHT22;23741;49.446;8.754;2022-12-18T09:46:24;2.40;60.50
37910;DHT22;23741;49.446;8.754;2022-12-18T09:48:29;2.40;60.30
37910;DHT22;23741;49.446;8.754;2022-12-18T09:50:32;2.40;60.20
37910;DHT22;23741;49.446;8.754;2022-12-18T09:52:37;2.40;60.10
37910;DHT22;23741;49.446;8.754;2022-12-18T09:54:40;2.40;59.90
37910;DHT22;23741;49.446;8.754;2022-12-18T09:56:42;2.40;60.20
37910;DHT22;23741;49.446;8.754;2022-12-18T09:58:58;2.40;60.30
37910;DHT22;23741;49.446;8.754;2022-12-18T10:01:00;2.40;60.30
37910;DHT22;23741;49.446;8.754;2022-12-18T10:03:09;2.50;60.40
37910;DHT22;23741;49.446;8.754;2022-12-18T10:07:23;2.50;60.50
37910;DHT22;23741;49.446;8.754;2022-12-18T10:09:50;2.60;60.40
37910;DHT22;23741;49.446;8.754;2022-12-18T10:16:17;2.80;60.40
37910;DHT22;23741;49.446;8.754;2022-12-18T10:18:30;2.70;60.50
37910;DHT22;23741;49.446;8.754;2022-12-18T10:20:40;2.80;60.70
37910;DHT22;23741;49.446;8.754;2022-12-18T10:22:55;2.80;60.70
37910;DHT22;23741;49.446;8.754;2022-12-18T10:27:17;3.00;60.70
37910;DHT22;23741;49.446;8.754;2022-12-18T10:29:18;3.00;60.50
37910;DHT22;23741;49.446;8.754;2022-12-18T10:31:21;3.10;60.30
37910;DHT22;23741;49.446;8.754;2022-12-18T10:33:28;3.10;60.30
37910;DHT22;23741;49.446;8.754;2022-12-18T10:35:30;3.20;60.50
37910;DHT22;23741;49.446;8.754;2022-12-18T10:37:31;3.30;60.40
37910;DHT22;23741;49.446;8.754;2022-12-18T10:39:33;3.30;60.10
37910;DHT22;23741;49.446;8.754;2022-12-18T10:41:35;3.40;60.10
37910;DHT22;23741;49.446;8.754;2022-12-18T10:43:37;3.50;60.10
37910;DHT22;23741;49.446;8.754;2022-12-18T10:45:39;3.50;60.00
37910;DHT22;23741;49.446;8.754;2022-12-18T10:47:42;3.60;60.10
37910;DHT22;23741;49.446;8.754;2022-12-18T10:49:49;3.60;60.00
37910;DHT22;23741;49.446;8.754;2022-12-18T10:52:03;3.70;59.90
37910;DHT22;23741;49.446;8.754;2022-12-18T10:56:07;3.80;59.70
37910;DHT22;23741;49.446;8.754;2022-12-18T11:02:39;3.90;59.70
37910;DHT22;23741;49.446;8.754;2022-12-18T11:04:49;3.90;60.50
37910;DHT22;23741;49.446;8.754;2022-12-18T11:06:52;4.00;59.80
37910;DHT22;23741;49.446;8.754;2022-12-18T11:09:01;4.10;59.80
37910;DHT22;23741;49.446;8.754;2022-12-18T11:11:20;4.10;59.80
37910;DHT22;23741;49.446;8.754;2022-12-18T11:13:23;4.20;60.00
37910;DHT22;23741;49.446;8.754;2022-12-18T11:15:26;4.30;59.90
37910;DHT22;23741;49.446;8.754;2022-12-18T11:17:30;4.30;59.70
37910;DHT22;23741;49.446;8.754;2022-12-18T11:19:33;4.40;59.70
37910;DHT22;23741;49.446;8.754;2022-12-18T11:21:39;4.50;59.70
37910;DHT22;23741;49.446;8.754;2022-12-18T11:23:51;4.60;59.70
37910;DHT22;23741;49.446;8.754;2022-12-18T11:25:54;4.60;59.50
37910;DHT22;23741;49.446;8.754;2022-12-18T11:27:58;4.70;59.60
37910;DHT22;23741;49.446;8.754;2022-12-18T11:30:08;4.80;59.30
37910;DHT22;23741;49.446;8.754;2022-12-18T11:34:27;4.80;58.90
37910;DHT22;23741;49.446;8.754;2022-12-18T11:36:33;4.90;58.70
37910;DHT22;23741;49.446;8.754;2022-12-18T11:38:36;4.90;58.70
37910;DHT22;23741;49.446;8.754;2022-12-18T11:40:40;4.90;58.40
37910;DHT22;23741;49.446;8.754;2022-12-18T11:44:50;4.90;58.40
37910;DHT22;23741;49.446;8.754;2022-12-18T11:47:00;4.90;58.40
37910;DHT22;23741;49.446;8.754;2022-12-18T11:51:05;5.00;58.40
37910;DHT22;23741;49.446;8.754;2022-12-18T11:53:12;4.90;58.30
37910;DHT22;23741;49.446;8.754;2022-12-18T12:06:38;5.10;58.40
37910;DHT22;23741;49.446;8.754;2022-12-18T12:15:20;5.10;57.60
37910;DHT22;23741;49.446;8.754;2022-12-18T12:21:40;5.10;57.60
37910;DHT22;23741;49.446;8.754;2022-12-18T12:25:52;5.20;57.50
37910;DHT22;23741;49.446;8.754;2022-12-18T12:38:24;5.20;57.90
37910;DHT22;23741;49.446;8.754;2022-12-18T12:40:27;5.20;57.90
37910;DHT22;23741;49.446;8.754;2022-12-18T12:42:54;5.30;57.90
37910;DHT22;23741;49.446;8.754;2022-12-18T12:45:17;5.30;57.80
37910;DHT22;23741;49.446;8.754;2022-12-18T12:47:27;5.30;57.70
37910;DHT22;23741;49.446;8.754;2022-12-18T12:49:30;5.30;57.60
37910;DHT22;23741;49.446;8.754;2022-12-18T12:51:41;5.40;57.90
37910;DHT22;23741;49.446;8.754;2022-12-18T12:53:44;5.40;57.90
37910;DHT22;23741;49.446;8.754;2022-12-18T12:55:47;5.40;58.10
37910;DHT22;23741;49.446;8.754;2022-12-18T12:57:55;5.40;57.80
37910;DHT22;23741;49.446;8.754;2022-12-18T13:02:29;5.30;57.60
37910;DHT22;23741;49.446;8.754;2022-12-18T13:06:43;5.30;57.70
37910;DHT22;23741;49.446;8.754;2022-12-18T13:08:51;5.40;57.80
37910;DHT22;23741;49.446;8.754;2022-12-18T13:10:54;5.40;57.80
37910;DHT22;23741;49.446;8.754;2022-12-18T13:13:17;5.30;57.80
37910;DHT22;23741;49.446;8.754;2022-12-18T13:15:26;5.40;57.70
37910;DHT22;23741;49.446;8.754;2022-12-18T13:17:31;5.30;57.30
37910;DHT22;23741;49.446;8.754;2022-12-18T13:19:33;5.30;57.40
37910;DHT22;23741;49.446;8.754;2022-12-18T13:21:34;5.30;57.50
37910;DHT22;23741;49.446;8.754;2022-12-18T13:23:36;5.30;57.70
37910;DHT22;23741;49.446;8.754;2022-12-18T13:25:39;5.30;57.50
37910;DHT22;23741;49.446;8.754;2022-12-18T13:29:46;5.20;57.40
37910;DHT22;23741;49.446;8.754;2022-12-18T13:33:50;5.20;57.60
37910;DHT22;23741;49.446;8.754;2022-12-18T13:42:41;5.20;57.80
37910;DHT22;23741;49.446;8.754;2022-12-18T13:45:01;5.20;57.90
37910;DHT22;23741;49.446;8.754;2022-12-18T13:47:03;5.30;58.00
37910;DHT22;23741;49.446;8.754;2022-12-18T13:49:18;5.30;58.00
37910;DHT22;23741;49.446;8.754;2022-12-18T13:51:22;5.30;58.00
37910;DHT22;23741;49.446;8.754;2022-12-18T13:53:26;5.30;57.90
37910;DHT22;23741;49.446;8.754;2022-12-18T13:55:29;5.30;57.70
37910;DHT22;23741;49.446;8.754;2022-12-18T13:57:35;5.30;57.70
37910;DHT22;23741;49.446;8.754;2022-12-18T13:59:37;5.30;57.80
37910;DHT22;23741;49.446;8.754;2022-12-18T14:01:43;5.30;57.70
37910;DHT22;23741;49.446;8.754;2022-12-18T14:03:45;5.30;57.80
37910;DHT22;23741;49.446;8.754;2022-12-18T14:06:07;5.30;57.90
37910;DHT22;23741;49.446;8.754;2022-12-18T14:08:10;5.40;57.80
37910;DHT22;23741;49.446;8.754;2022-12-18T14:10:13;5.40;57.80
37910;DHT22;23741;49.446;8.754;2022-12-18T14:12:36;5.40;57.80
37910;DHT22;23741;49.446;8.754;2022-12-18T14:14:57;5.40;57.40
37910;DHT22;23741;49.446;8.754;2022-12-18T14:16:59;5.40;57.50
37910;DHT22;23741;49.446;8.754;2022-12-18T14:19:02;5.40;57.50
37910;DHT22;23741;49.446;8.754;2022-12-18T14:21:17;5.40;57.50
37910;DHT22;23741;49.446;8.754;2022-12-18T14:23:39;5.40;57.50
37910;DHT22;23741;49.446;8.754;2022-12-18T14:25:45;5.30;57.60
37910;DHT22;23741;49.446;8.754;2022-12-18T14:27:49;5.30;57.60
37910;DHT22;23741;49.446;8.754;2022-12-18T14:29:51;5.30;57.60
37910;DHT22;23741;49.446;8.754;2022-12-18T14:34:15;5.40;57.60
37910;DHT22;23741;49.446;8.754;2022-12-18T14:36:18;5.30;57.60
37910;DHT22;23741;49.446;8.754;2022-12-18T14:40:25;5.30;57.60
37910;DHT22;23741;49.446;8.754;2022-12-18T14:42:27;5.30;57.80
37910;DHT22;23741;49.446;8.754;2022-12-18T14:44:29;5.30;57.70
37910;DHT22;23741;49.446;8.754;2022-12-18T14:46:45;5.30;57.60
37910;DHT22;23741;49.446;8.754;2022-12-18T14:48:47;5.30;57.50
37910;DHT22;23741;49.446;8.754;2022-12-18T14:51:03;5.30;57.40
37910;DHT22;23741;49.446;8.754;2022-12-18T14:53:06;5.30;57.50
37910;DHT22;23741;49.446;8.754;2022-12-18T14:55:14;5.30;57.50
37910;DHT22;23741;49.446;8.754;2022-12-18T14:57:20;5.30;57.70
37910;DHT22;23741;49.446;8.754;2022-12-18T14:59:23;5.30;58.30
37910;DHT22;23741;49.446;8.754;2022-12-18T15:01:29;5.30;57.60